createdAt,value
2017-09-27T00:00:29.714Z,53.40
2017-09-27T00:02:58.005Z,47.07
2017-09-27T00:05:26.290Z,54.60
2017-09-27T00:07:54.590Z,71.23
2017-09-27T00:10:22.864Z,52.17
2017-09-27T00:12:51.100Z,48.93
2017-09-27T00:15:19.341Z,50.63
2017-09-27T00:17:48.366Z,50.57
2017-09-27T00:20:16.632Z,55.83
2017-09-27T00:22:44.895Z,45.37
2017-09-27T00:25:13.189Z,52.53
2017-09-27T00:27:41.425Z,46.50
2017-09-27T00:30:10.455Z,55.27
2017-09-27T00:32:39.502Z,52.80
2017-09-27T00:35:07.742Z,44.53
2017-09-27T00:37:36.018Z,49.37
2017-09-27T00:40:05.076Z,59.80
2017-09-27T00:42:34.094Z,60.73
2017-09-27T00:45:02.791Z,45.50
2017-09-27T00:47:31.036Z,42.00
2017-09-27T00:49:59.309Z,46.50
2017-09-27T00:52:28.344Z,48.07
2017-09-27T00:54:56.622Z,42.00
2017-09-27T00:57:24.868Z,46.23
2017-09-27T00:59:53.154Z,48.43
2017-09-27T01:02:21.432Z,52.13
2017-09-27T01:04:49.915Z,44.13
2017-09-27T01:07:18.901Z,50.23
2017-09-27T01:09:47.942Z,53.20
2017-09-27T01:12:16.199Z,42.73
2017-09-27T01:14:44.468Z,46.50
2017-09-27T01:17:12.756Z,47.57
2017-09-27T01:19:42.578Z,52.77
2017-09-27T01:22:10.882Z,53.60
2017-09-27T01:24:39.164Z,55.10
2017-09-27T01:27:08.462Z,57.53
2017-09-27T01:29:36.714Z,60.03
2017-09-27T01:32:05.128Z,48.60
2017-09-27T01:34:34.154Z,54.10
2017-09-27T01:37:02.439Z,54.57
2017-09-27T01:39:30.701Z,56.47
2017-09-27T01:41:58.984Z,54.13
2017-09-27T01:44:27.254Z,57.27
2017-09-27T01:46:56.158Z,48.73
2017-09-27T01:49:24.455Z,50.53
2017-09-27T01:51:53.445Z,62.90
2017-09-27T01:54:21.735Z,56.60
2017-09-27T01:56:50.000Z,49.23
2017-09-27T01:59:18.290Z,53.37
2017-09-27T02:01:46.525Z,54.63
2017-09-27T02:04:15.658Z,51.67
2017-09-27T02:06:43.957Z,52.20
2017-09-27T02:09:12.217Z,54.43
2017-09-27T02:11:41.004Z,48.57
2017-09-27T02:14:09.233Z,57.07
2017-09-27T02:16:38.676Z,59.10
2017-09-27T02:19:06.975Z,56.67
2017-09-27T02:21:35.191Z,52.73
2017-09-27T02:24:04.220Z,49.83
2017-09-27T02:26:32.466Z,59.10
2017-09-27T02:29:00.737Z,52.53
2017-09-27T02:31:28.982Z,53.83
2017-09-27T02:33:57.599Z,54.93
2017-09-27T02:36:26.646Z,56.80
2017-09-27T02:38:54.881Z,48.50
2017-09-27T02:41:24.327Z,55.00
2017-09-27T02:43:53.161Z,50.40
2017-09-27T02:46:21.382Z,51.20
2017-09-27T02:48:50.053Z,47.40
2017-09-27T02:51:19.019Z,50.40
2017-09-27T02:53:47.250Z,52.03
2017-09-27T02:56:16.397Z,46.23
2017-09-27T02:58:44.656Z,57.63
2017-09-27T03:01:13.020Z,49.10
2017-09-27T03:03:41.264Z,48.13
2017-09-27T03:06:09.915Z,45.07
2017-09-27T03:08:38.473Z,52.77
2017-09-27T03:11:07.087Z,56.17
2017-09-27T03:13:36.829Z,54.40
2017-09-27T03:16:05.106Z,54.87
2017-09-27T03:18:33.458Z,61.80
2017-09-27T03:21:01.674Z,57.00
2017-09-27T03:23:29.964Z,51.57
2017-09-27T03:25:58.237Z,58.40
2017-09-27T03:28:26.503Z,54.00
2017-09-27T03:30:54.742Z,54.30
2017-09-27T03:33:23.784Z,49.67
2017-09-27T03:35:52.037Z,51.53
2017-09-27T03:38:21.098Z,54.90
2017-09-27T03:40:49.359Z,53.20
2017-09-27T03:43:17.625Z,47.20
2017-09-27T03:45:45.862Z,48.20
2017-09-27T03:48:14.158Z,54.80
2017-09-27T03:50:42.407Z,56.30
2017-09-27T03:53:11.435Z,56.07
2017-09-27T03:55:39.710Z,52.73
2017-09-27T03:58:07.958Z,64.43
2017-09-27T04:00:36.986Z,55.57
2017-09-27T04:03:05.250Z,52.43
2017-09-27T04:05:33.559Z,62.40
2017-09-27T04:08:01.858Z,51.33
2017-09-27T04:10:30.146Z,53.93
2017-09-27T04:12:58.375Z,57.10
2017-09-27T04:15:26.647Z,56.97
2017-09-27T04:17:54.906Z,54.77
2017-09-27T04:20:23.183Z,62.30
2017-09-27T04:22:51.445Z,57.33
2017-09-27T04:25:19.742Z,59.10
2017-09-27T04:27:47.997Z,54.33
2017-09-27T04:30:17.010Z,56.47
2017-09-27T04:32:45.275Z,55.67
2017-09-27T04:35:13.641Z,65.80
2017-09-27T04:37:41.872Z,56.37
2017-09-27T04:40:10.155Z,53.40
2017-09-27T04:42:38.568Z,52.17
2017-09-27T04:45:06.769Z,52.63
2017-09-27T04:47:35.075Z,61.40
2017-09-27T04:50:03.329Z,56.60
2017-09-27T04:52:31.611Z,50.60
2017-09-27T04:55:00.352Z,55.33
2017-09-27T04:57:28.766Z,46.37
2017-09-27T04:59:57.005Z,59.53
2017-09-27T05:02:26.070Z,50.13
2017-09-27T05:04:54.309Z,54.30
2017-09-27T05:07:22.570Z,42.33
2017-09-27T05:09:51.621Z,54.67
2017-09-27T05:12:19.858Z,65.43
2017-09-27T05:14:48.893Z,52.23
2017-09-27T05:17:17.144Z,65.43
2017-09-27T05:19:45.417Z,58.40
2017-09-27T05:22:13.677Z,58.10
2017-09-27T05:24:42.681Z,56.43
2017-09-27T05:27:11.756Z,60.13
2017-09-27T05:29:40.034Z,51.20
2017-09-27T05:32:08.408Z,53.03
2017-09-27T05:34:38.178Z,64.73
2017-09-27T05:37:06.423Z,51.87
2017-09-27T05:39:34.695Z,59.23
2017-09-27T05:42:02.937Z,55.70
2017-09-27T05:44:31.200Z,56.57
2017-09-27T05:46:59.461Z,58.63
2017-09-27T05:49:27.743Z,50.60
2017-09-27T05:51:55.996Z,49.43
2017-09-27T05:54:24.298Z,48.43
2017-09-27T05:56:52.625Z,52.90
2017-09-27T05:59:20.869Z,54.20
2017-09-27T06:01:49.334Z,57.47
2017-09-27T06:04:17.579Z,71.43
2017-09-27T06:06:46.609Z,50.73
2017-09-27T06:09:14.882Z,61.00
2017-09-27T06:11:43.129Z,55.90
2017-09-27T06:14:11.402Z,53.07
2017-09-27T06:16:41.378Z,63.17
2017-09-27T06:19:09.633Z,67.60
2017-09-27T06:21:37.913Z,61.10
2017-09-27T06:24:06.233Z,47.60
2017-09-27T06:26:35.985Z,55.30
2017-09-27T06:29:04.259Z,57.83
2017-09-27T06:31:32.537Z,54.33
2017-09-27T06:34:00.813Z,56.40
2017-09-27T06:36:29.502Z,55.03
2017-09-27T06:38:57.794Z,51.00
2017-09-27T06:41:26.111Z,54.80
2017-09-27T06:43:54.382Z,49.83
2017-09-27T06:46:22.610Z,42.77
2017-09-27T06:48:51.698Z,54.57
2017-09-27T06:51:19.970Z,54.03
2017-09-27T06:53:49.262Z,58.70
2017-09-27T06:56:18.322Z,46.10
2017-09-27T06:58:46.571Z,44.93
2017-09-27T07:01:15.209Z,37.60
2017-09-27T07:03:44.814Z,56.87
2017-09-27T07:06:14.585Z,45.50
2017-09-27T07:08:43.043Z,53.00
2017-09-27T07:11:12.056Z,60.33
2017-09-27T07:13:40.325Z,45.13
2017-09-27T07:16:08.598Z,46.10
2017-09-27T07:18:36.880Z,44.53
2017-09-27T07:21:05.124Z,47.30
2017-09-27T07:23:33.382Z,44.73
2017-09-27T07:26:01.642Z,56.50
2017-09-27T07:28:29.905Z,51.23
2017-09-27T07:30:58.197Z,49.17
2017-09-27T07:33:26.415Z,43.17
2017-09-27T07:35:55.494Z,44.43
2017-09-27T07:38:23.780Z,49.23
2017-09-27T07:40:52.093Z,51.50
2017-09-27T07:43:20.374Z,47.57
2017-09-27T07:48:22.181Z,41.07
2017-09-27T07:50:50.457Z,50.73
2017-09-27T07:53:18.714Z,46.70
2017-09-27T07:55:47.576Z,38.00
2017-09-27T07:58:16.599Z,42.60
2017-09-27T08:00:44.855Z,42.93
2017-09-27T08:03:13.138Z,42.13
2017-09-27T08:05:41.383Z,44.30
2017-09-27T08:08:09.679Z,37.73
2017-09-27T08:10:38.684Z,37.10
2017-09-27T08:13:06.944Z,41.50
2017-09-27T08:15:35.983Z,45.53
2017-09-27T08:18:04.294Z,39.73
2017-09-27T08:20:32.589Z,35.70
2017-09-27T08:23:01.611Z,34.07
2017-09-27T08:25:29.854Z,42.90
2017-09-27T08:27:58.879Z,47.17
2017-09-27T08:30:27.129Z,34.70
2017-09-27T08:32:56.170Z,34.43
2017-09-27T08:35:24.425Z,39.13
2017-09-27T08:37:52.682Z,31.80
2017-09-27T08:40:21.720Z,53.73
2017-09-27T08:42:50.803Z,47.00
2017-09-27T08:45:20.503Z,41.93
2017-09-27T08:47:48.752Z,38.87
2017-09-27T08:50:17.349Z,37.30
2017-09-27T08:52:45.564Z,36.33
2017-09-27T08:55:13.822Z,34.63
2017-09-27T08:57:42.097Z,33.27
2017-09-27T09:00:10.389Z,43.27
2017-09-27T09:02:38.643Z,32.70
2017-09-27T09:05:07.661Z,28.90
2017-09-27T09:07:35.944Z,32.40
2017-09-27T09:10:04.257Z,39.83
2017-09-27T09:12:32.524Z,29.60
2017-09-27T09:15:01.455Z,31.43
2017-09-27T09:17:29.710Z,36.20
2017-09-27T09:19:57.930Z,28.77
2017-09-27T09:22:27.090Z,32.83
2017-09-27T09:24:55.327Z,33.93
2017-09-27T09:27:23.594Z,32.37
2017-09-27T09:29:51.864Z,34.47
2017-09-27T09:32:20.123Z,36.23
2017-09-27T09:34:48.427Z,32.90
2017-09-27T09:37:18.232Z,29.63
2017-09-27T09:39:46.492Z,35.53
2017-09-27T09:42:15.525Z,38.63
2017-09-27T09:44:43.798Z,37.73
2017-09-27T09:47:12.068Z,40.23
2017-09-27T09:49:41.582Z,37.83
2017-09-27T09:52:09.819Z,33.00
2017-09-27T09:54:40.154Z,29.40
2017-09-27T09:57:08.409Z,31.23
2017-09-27T09:59:37.437Z,26.57
2017-09-27T10:02:05.690Z,40.97
2017-09-27T10:04:35.464Z,28.03
2017-09-27T10:07:03.717Z,27.60
2017-09-27T10:09:32.006Z,35.93
2017-09-27T10:12:00.272Z,26.77
2017-09-27T10:14:28.518Z,26.73
2017-09-27T10:16:57.527Z,34.50
2017-09-27T10:19:25.777Z,29.07
2017-09-27T10:21:54.805Z,27.77
2017-09-27T10:24:23.071Z,29.70
2017-09-27T10:26:51.345Z,33.67
2017-09-27T10:29:19.607Z,35.60
2017-09-27T10:31:48.702Z,30.00
2017-09-27T10:34:17.753Z,25.13
2017-09-27T10:36:45.995Z,28.50
2017-09-27T10:39:14.394Z,28.33
2017-09-27T10:41:43.555Z,32.23
2017-09-27T10:44:12.576Z,31.33
2017-09-27T10:46:40.835Z,41.33
2017-09-27T10:49:09.860Z,26.37
2017-09-27T10:51:38.133Z,29.47
2017-09-27T10:54:06.402Z,26.00
2017-09-27T10:56:34.644Z,22.87
2017-09-27T10:59:04.268Z,32.57
2017-09-27T11:01:32.487Z,29.30
2017-09-27T11:04:00.839Z,21.23
2017-09-27T11:06:29.200Z,27.10
2017-09-27T11:08:58.416Z,24.70
2017-09-27T11:11:26.881Z,25.80
2017-09-27T11:13:55.268Z,33.10
2017-09-27T11:16:23.668Z,29.33
2017-09-27T11:18:52.095Z,22.33
2017-09-27T11:21:20.472Z,22.33
2017-09-27T11:23:48.803Z,28.63
2017-09-27T11:26:17.085Z,21.10
2017-09-27T11:28:45.346Z,20.07
2017-09-27T11:31:13.604Z,26.00
2017-09-27T11:33:42.620Z,23.50
2017-09-27T11:36:10.908Z,25.33
2017-09-27T11:38:39.158Z,25.50
2017-09-27T11:41:08.223Z,21.63
2017-09-27T11:43:36.446Z,27.13
2017-09-27T11:46:04.747Z,24.07
2017-09-27T11:48:33.007Z,23.80
2017-09-27T11:51:02.025Z,22.00
2017-09-27T11:53:30.572Z,23.93
2017-09-27T11:55:59.742Z,20.50
2017-09-27T11:58:28.280Z,23.70
2017-09-27T12:00:56.883Z,21.77
2017-09-27T12:03:25.420Z,23.63
2017-09-27T12:05:54.099Z,21.53
2017-09-27T12:08:22.571Z,24.50
2017-09-27T12:10:51.901Z,20.93
2017-09-27T12:13:21.468Z,23.20
2017-09-27T12:15:49.728Z,18.07
2017-09-27T12:18:18.784Z,21.23
2017-09-27T12:20:47.834Z,27.17
2017-09-27T12:23:16.102Z,23.20
2017-09-27T12:25:45.976Z,16.73
2017-09-27T12:28:15.014Z,21.80
2017-09-27T12:30:44.204Z,18.47
2017-09-27T12:33:12.531Z,19.60
2017-09-27T12:35:40.861Z,28.50
2017-09-27T12:38:09.131Z,18.07
2017-09-27T12:40:47.390Z,16.83
2017-09-27T12:43:16.430Z,20.67
2017-09-27T12:45:44.727Z,23.20
2017-09-27T12:48:13.005Z,20.03
2017-09-27T12:50:41.316Z,19.40
2017-09-27T12:53:10.360Z,15.93
2017-09-27T12:55:39.523Z,17.93
2017-09-27T12:58:09.376Z,19.83
2017-09-27T13:00:38.116Z,19.63
2017-09-27T13:03:07.355Z,20.77
2017-09-27T13:05:36.041Z,22.20
2017-09-27T13:08:05.613Z,26.33
2017-09-27T13:10:34.634Z,28.13
2017-09-27T13:13:03.342Z,21.30
2017-09-27T13:15:31.840Z,22.43
2017-09-27T13:18:00.143Z,25.93
2017-09-27T13:20:28.420Z,23.93
2017-09-27T13:22:56.688Z,25.20
2017-09-27T13:25:25.806Z,34.20
2017-09-27T13:27:54.099Z,29.67
2017-09-27T13:30:23.276Z,27.63
2017-09-27T13:32:51.562Z,26.30
2017-09-27T13:35:20.610Z,20.70
2017-09-27T13:37:48.935Z,24.07
2017-09-27T13:40:18.028Z,35.73
2017-09-27T13:42:47.129Z,22.10
2017-09-27T13:45:17.203Z,18.00
2017-09-27T13:47:46.469Z,20.47
2017-09-27T13:50:14.813Z,26.93
2017-09-27T13:52:43.171Z,25.67
2017-09-27T13:55:11.729Z,19.10
2017-09-27T13:57:39.999Z,29.33
2017-09-27T14:00:08.305Z,29.30
2017-09-27T14:02:37.369Z,26.77
2017-09-27T14:05:05.627Z,19.37
2017-09-27T14:07:34.712Z,20.67
2017-09-27T14:10:03.017Z,26.80
2017-09-27T14:12:32.881Z,20.17
2017-09-27T14:15:01.334Z,22.57
2017-09-27T14:17:29.650Z,19.77
2017-09-27T14:19:58.008Z,19.17
2017-09-27T14:22:26.411Z,14.20
2017-09-27T14:24:54.673Z,19.60
2017-09-27T14:27:22.995Z,17.80
2017-09-27T14:29:52.072Z,28.00
2017-09-27T14:32:20.340Z,17.03
2017-09-27T14:34:48.645Z,25.57
2017-09-27T14:37:17.716Z,23.00
2017-09-27T14:39:45.967Z,26.70
2017-09-27T14:42:14.279Z,30.23
2017-09-27T14:44:43.369Z,27.10
2017-09-27T14:47:11.747Z,39.20
2017-09-27T14:49:39.966Z,46.40
2017-09-27T14:52:08.241Z,43.07
2017-09-27T14:54:36.487Z,44.87
2017-09-27T14:57:04.822Z,46.73
2017-09-27T14:59:33.122Z,43.90
2017-09-27T15:02:01.349Z,62.03
2017-09-27T15:04:29.656Z,54.90
2017-09-27T15:06:57.893Z,50.83
2017-09-27T15:09:26.178Z,49.73
2017-09-27T15:11:54.455Z,43.60
2017-09-27T15:14:22.754Z,45.73
2017-09-27T15:16:51.051Z,64.60
2017-09-27T15:19:19.326Z,47.77
2017-09-27T15:21:47.614Z,53.77
2017-09-27T15:24:15.876Z,54.30
2017-09-27T15:26:44.185Z,62.50
2017-09-27T15:29:13.224Z,59.93
2017-09-27T15:31:41.524Z,62.07
2017-09-27T15:34:09.805Z,66.83
2017-09-27T15:36:38.322Z,63.03
2017-09-27T15:39:06.630Z,54.23
2017-09-27T15:41:35.654Z,52.60
2017-09-27T15:44:03.960Z,73.07
2017-09-27T15:46:32.266Z,58.57
2017-09-27T15:49:00.489Z,66.40
2017-09-27T15:51:28.764Z,68.57
2017-09-27T15:53:57.038Z,60.20
2017-09-27T15:56:25.315Z,76.50
2017-09-27T15:58:53.556Z,66.80
2017-09-27T16:01:22.599Z,55.87
2017-09-27T16:03:51.015Z,63.50
2017-09-27T16:06:19.242Z,70.53
2017-09-27T16:08:47.536Z,70.70
2017-09-27T16:11:15.810Z,63.33
2017-09-27T16:13:44.103Z,68.30
2017-09-27T16:16:12.422Z,52.17
2017-09-27T16:18:40.914Z,49.27
2017-09-27T16:21:09.949Z,54.90
2017-09-27T16:23:38.196Z,52.87
2017-09-27T16:26:06.528Z,56.07
2017-09-27T16:28:34.762Z,62.87
2017-09-27T16:31:03.054Z,52.57
2017-09-27T16:33:31.309Z,53.97
2017-09-27T16:35:59.696Z,54.30
2017-09-27T16:38:27.972Z,67.13
2017-09-27T16:40:56.270Z,59.60
2017-09-27T16:43:24.627Z,57.77
2017-09-27T16:45:52.960Z,56.70
2017-09-27T16:48:21.281Z,49.93
2017-09-27T16:50:50.293Z,57.60
2017-09-27T16:53:18.679Z,52.03
2017-09-27T16:55:46.927Z,46.80
2017-09-27T16:58:15.224Z,59.77
2017-09-27T17:00:43.504Z,58.87
2017-09-27T17:03:11.880Z,52.00
2017-09-27T17:05:40.155Z,60.23
2017-09-27T17:08:08.437Z,55.93
2017-09-27T17:10:36.709Z,56.33
2017-09-27T17:13:05.005Z,68.30
2017-09-27T17:15:33.504Z,63.20
2017-09-27T17:18:03.319Z,53.20
2017-09-27T17:20:31.636Z,70.07
2017-09-27T17:23:00.000Z,65.10
2017-09-27T17:25:29.343Z,81.53
2017-09-27T17:27:57.605Z,57.50
2017-09-27T17:30:25.955Z,55.30
2017-09-27T17:32:55.071Z,54.20
2017-09-27T17:35:24.189Z,53.17
2017-09-27T17:37:52.668Z,64.43
2017-09-27T17:40:20.917Z,63.07
2017-09-27T17:42:50.031Z,61.87
2017-09-27T17:45:18.420Z,69.93
2017-09-27T17:47:46.732Z,81.27
2017-09-27T17:50:15.055Z,64.33
2017-09-27T17:52:44.643Z,60.83
2017-09-27T17:55:12.963Z,55.23
2017-09-27T17:57:41.238Z,51.63
2017-09-27T18:00:09.570Z,57.17
2017-09-27T18:02:38.654Z,49.60
2017-09-27T18:05:12.750Z,50.60
2017-09-27T18:07:47.140Z,46.67
2017-09-27T18:10:21.836Z,52.97
2017-09-27T18:12:56.655Z,47.70
2017-09-27T18:18:33.828Z,50.47
2017-09-27T18:21:02.103Z,45.33
2017-09-27T18:23:30.408Z,37.87
2017-09-27T18:25:58.672Z,37.13
2017-09-27T18:28:26.951Z,36.97
2017-09-27T18:30:55.264Z,38.00
2017-09-27T18:33:24.341Z,27.73
2017-09-27T18:35:52.623Z,27.27
2017-09-27T18:38:20.964Z,23.90
2017-09-27T18:40:49.260Z,25.17
2017-09-27T18:43:17.565Z,25.60
2017-09-27T18:45:45.917Z,29.33
2017-09-27T18:48:14.179Z,26.93
2017-09-27T18:50:42.438Z,95.90
2017-09-27T18:53:10.774Z,29.97
2017-09-27T18:55:39.118Z,38.23
2017-09-27T18:58:07.390Z,38.97
2017-09-27T19:00:35.667Z,34.53
2017-09-27T19:03:04.004Z,39.27
2017-09-27T19:05:32.274Z,37.30
2017-09-27T19:08:01.837Z,36.60
2017-09-27T19:10:30.309Z,32.00
2017-09-27T19:12:58.573Z,36.83
2017-09-27T19:15:26.836Z,37.73
2017-09-27T19:17:55.903Z,35.30
2017-09-27T19:20:24.177Z,44.40
2017-09-27T19:22:52.880Z,33.27
2017-09-27T19:25:21.151Z,33.90
2017-09-27T19:27:50.222Z,39.40
2017-09-27T19:30:18.574Z,30.20
2017-09-27T19:32:46.853Z,37.67
2017-09-27T19:35:15.178Z,41.70
2017-09-27T19:37:43.462Z,38.80
2017-09-27T19:40:12.515Z,34.57
2017-09-27T19:42:40.818Z,43.57
2017-09-27T19:45:10.096Z,44.70
2017-09-27T19:47:38.380Z,35.67
2017-09-27T19:50:06.679Z,34.70
2017-09-27T19:52:34.974Z,41.53
2017-09-27T19:55:04.035Z,32.40
2017-09-27T19:57:32.327Z,36.70
2017-09-27T20:00:00.631Z,47.13
2017-09-27T20:02:29.698Z,46.27
2017-09-27T20:04:58.022Z,52.47
2017-09-27T20:07:27.210Z,52.43
2017-09-27T20:09:55.634Z,46.77
2017-09-27T20:12:23.951Z,36.23
2017-09-27T20:14:52.998Z,41.90
2017-09-27T20:17:21.290Z,35.57
2017-09-27T20:19:49.573Z,38.53
2017-09-27T20:22:17.975Z,48.03
2017-09-27T20:24:46.275Z,45.77
2017-09-27T20:27:14.519Z,41.20
2017-09-27T20:29:42.825Z,44.63
2017-09-27T20:32:11.109Z,53.33
2017-09-27T20:34:39.730Z,42.57
2017-09-27T20:37:08.028Z,48.93
2017-09-27T20:39:37.474Z,43.57
2017-09-27T20:42:06.528Z,47.47
2017-09-27T20:44:34.808Z,52.27
2017-09-27T20:47:03.291Z,45.23
2017-09-27T20:49:31.569Z,51.93
2017-09-27T20:52:00.281Z,46.47
2017-09-27T20:54:28.967Z,48.83
2017-09-27T20:56:57.323Z,44.23
2017-09-27T20:59:25.610Z,40.93
2017-09-27T21:01:53.958Z,45.20
2017-09-27T21:04:22.587Z,51.63
2017-09-27T21:06:50.835Z,53.57
2017-09-27T21:09:19.114Z,57.63
2017-09-27T21:11:47.452Z,54.53
2017-09-27T21:14:16.796Z,66.40
2017-09-27T21:16:45.066Z,56.10
2017-09-27T21:19:13.352Z,47.60
2017-09-27T21:21:41.606Z,56.30
2017-09-27T21:24:09.915Z,55.87
2017-09-27T21:26:38.254Z,50.63
2017-09-27T21:29:06.521Z,55.80
2017-09-27T21:31:34.834Z,56.13
2017-09-27T21:34:03.118Z,68.23
2017-09-27T21:36:31.393Z,55.10
2017-09-27T21:38:59.704Z,64.43
2017-09-27T21:41:27.931Z,54.80
2017-09-27T21:43:56.220Z,55.13
2017-09-27T21:46:24.477Z,68.17
2017-09-27T21:48:52.719Z,49.00
2017-09-27T21:51:21.763Z,49.43
2017-09-27T21:53:50.008Z,49.63
2017-09-27T21:56:18.271Z,47.00
2017-09-27T21:58:46.548Z,61.73
2017-09-27T22:01:15.632Z,51.90
2017-09-27T22:03:43.903Z,53.93
2017-09-27T22:06:12.184Z,57.80
2017-09-27T22:08:40.499Z,56.97
2017-09-27T22:11:08.764Z,54.10
2017-09-27T22:13:37.442Z,51.57
2017-09-27T22:16:05.807Z,51.10
2017-09-27T22:18:34.058Z,60.63
2017-09-27T22:21:02.351Z,61.33
2017-09-27T22:23:30.632Z,63.30
2017-09-27T22:25:59.764Z,58.23
2017-09-27T22:28:28.856Z,66.60
2017-09-27T22:30:57.174Z,68.50
2017-09-27T22:33:25.433Z,77.27
2017-09-27T22:35:53.730Z,67.13
2017-09-27T22:38:22.040Z,79.43
2017-09-27T22:40:51.077Z,65.13
2017-09-27T22:43:19.413Z,63.93
2017-09-27T22:45:47.674Z,78.60
2017-09-27T22:48:15.939Z,73.10
2017-09-27T22:50:44.575Z,74.07
2017-09-27T22:53:13.654Z,75.07
2017-09-27T22:55:41.924Z,76.70
2017-09-27T22:58:10.185Z,98.17
2017-09-27T23:00:38.481Z,73.20
2017-09-27T23:03:07.584Z,72.73
2017-09-27T23:05:36.626Z,69.87
2017-09-27T23:08:04.942Z,70.37
2017-09-27T23:10:33.212Z,65.27
2017-09-27T23:13:01.495Z,65.03
2017-09-27T23:15:29.748Z,70.30
2017-09-27T23:17:58.212Z,72.40
2017-09-27T23:20:26.484Z,64.20
2017-09-27T23:22:54.756Z,60.90
2017-09-27T23:25:23.100Z,64.60
2017-09-27T23:27:51.362Z,65.67
2017-09-27T23:30:19.635Z,65.30
2017-09-27T23:32:47.921Z,67.43
2017-09-27T23:35:16.203Z,58.73
2017-09-27T23:37:44.460Z,61.37
2017-09-27T23:40:12.721Z,54.57
2017-09-27T23:42:41.069Z,55.10
2017-09-27T23:45:09.377Z,63.40
2017-09-27T23:47:37.645Z,58.07
2017-09-27T23:50:05.926Z,61.57
2017-09-27T23:52:34.174Z,69.20
2017-09-27T23:55:02.462Z,64.83
2017-09-27T23:57:30.727Z,61.57
2017-09-27T23:59:59.799Z,67.27
